Time;durP1;ratioP1;P1;durP2;ratioP2;P2;SDS_P1;SDS_P2;PMS_P1;PMS_P2;Temp;Humidity;BMP_temperature;BMP_pressure;BME280_temperature;BME280_humidity;BME280_pressure;Samples;Min_cycle;Max_cycle;Signal;HPM_P1;HPM_P2
2021/03/28 00:00:59;;;;;;;;;;;4.70;99.90;;;;;;5076090;28;19975;-78
2021/03/28 00:03:37;;;;;;;;;;;4.70;99.90;;;;;;5078675;28;20476;-78
2021/03/28 00:06:14;;;;;;;;;;;4.60;99.90;;;;;;5074045;28;20643;-79
2021/03/28 00:08:41;;;;;;;;;;;4.60;99.90;;;;;;5086415;28;19924;-78
2021/03/28 00:11:16;;;;;;;;;;;4.60;99.90;;;;;;5078722;28;20007;-78
2021/03/28 00:13:52;;;;;;;;;;;4.60;99.90;;;;;;5086925;28;19917;-78
2021/03/28 00:16:18;;;;;;;;;;;4.60;99.90;;;;;;5085617;28;19916;-78
2021/03/28 00:19:00;;;;;;;;;;;4.60;99.90;;;;;;5061434;28;20254;-78
2021/03/28 00:21:27;;;;;;;;;;;4.60;99.90;;;;;;5073470;28;19967;-78
2021/03/28 00:24:11;;;;;;;;;;;4.50;99.90;;;;;;5079095;28;19970;-78
2021/03/28 00:27:03;;;;;;;;;;;4.50;99.90;;;;;;5082232;28;20341;-78
2021/03/28 00:29:34;;;;;;;;;;;4.50;99.90;;;;;;5089668;28;20570;-78
2021/03/28 00:32:06;;;;;;;;;;;4.50;99.90;;;;;;5075692;28;19963;-78
2021/03/28 00:34:33;;;;;;;;;;;4.50;99.90;;;;;;5085528;28;20850;-78
2021/03/28 00:36:59;;;;;;;;;;;4.50;99.90;;;;;;5074707;28;20014;-78
2021/03/28 00:39:37;;;;;;;;;;;4.50;99.90;;;;;;5073923;28;19927;-78
2021/03/28 00:42:08;;;;;;;;;;;4.40;99.90;;;;;;5075138;28;20261;-78
2021/03/28 00:44:42;;;;;;;;;;;4.50;99.90;;;;;;5086232;28;19977;-78
2021/03/28 00:47:11;;;;;;;;;;;4.50;99.90;;;;;;5073140;28;20421;-78
2021/03/28 00:49:40;;;;;;;;;;;4.40;99.90;;;;;;5073990;28;20003;-78
2021/03/28 00:52:06;;;;;;;;;;;4.40;99.90;;;;;;5080476;28;19959;-78
2021/03/28 00:54:42;;;;;;;;;;;4.40;99.90;;;;;;5075611;28;20023;-78
2021/03/28 00:57:26;;;;;;;;;;;4.40;99.90;;;;;;5073877;28;19919;-78
2021/03/28 00:59:57;;;;;;;;;;;4.40;99.90;;;;;;5075921;28;19928;-78
2021/03/28 01:02:27;;;;;;;;;;;4.30;99.90;;;;;;5091649;28;20058;-78
2021/03/28 01:05:11;;;;;;;;;;;4.30;99.90;;;;;;5091355;28;20281;-78
2021/03/28 01:07:44;;;;;;;;;;;4.20;99.90;;;;;;5073930;28;19963;-78
2021/03/28 01:10:15;;;;;;;;;;;4.20;99.90;;;;;;5108171;27;19981;-78
2021/03/28 01:12:59;;;;;;;;;;;4.20;99.90;;;;;;5090411;28;19916;-78
2021/03/28 01:15:43;;;;;;;;;;;4.10;99.90;;;;;;5084891;28;19922;-78
2021/03/28 01:18:29;;;;;;;;;;;4.10;99.90;;;;;;5074390;28;19932;-78
2021/03/28 01:21:14;;;;;;;;;;;4.10;99.90;;;;;;5082816;28;20366;-78
2021/03/28 01:23:43;;;;;;;;;;;4.10;99.90;;;;;;5107170;28;19993;-78
2021/03/28 01:26:08;;;;;;;;;;;4.00;99.90;;;;;;5075071;28;19938;-78
2021/03/28 01:28:43;;;;;;;;;;;4.00;99.90;;;;;;5076210;28;19920;-78
2021/03/28 01:31:29;;;;;;;;;;;3.90;99.90;;;;;;5085208;28;19920;-78
2021/03/28 01:33:57;;;;;;;;;;;3.90;99.90;;;;;;5074451;28;20007;-78
2021/03/28 01:36:31;;;;;;;;;;;3.90;99.90;;;;;;5085817;28;20003;-78
2021/03/28 01:38:59;;;;;;;;;;;3.90;99.90;;;;;;5064673;28;20500;-78
2021/03/28 01:41:27;;;;;;;;;;;3.80;99.90;;;;;;5078749;28;19924;-78
2021/03/28 01:43:53;;;;;;;;;;;3.80;99.90;;;;;;5076645;28;19916;-78
2021/03/28 01:46:38;;;;;;;;;;;3.80;99.90;;;;;;5076990;28;19924;-78
2021/03/28 01:49:18;;;;;;;;;;;3.80;99.90;;;;;;5078506;28;20035;-78
2021/03/28 01:51:53;;;;;;;;;;;3.80;99.90;;;;;;5078343;28;19944;-78
2021/03/28 01:54:27;;;;;;;;;;;3.80;99.90;;;;;;5081066;28;19943;-78
2021/03/28 01:57:03;;;;;;;;;;;3.70;99.90;;;;;;5095127;28;19927;-78
2021/03/28 01:59:35;;;;;;;;;;;3.70;99.90;;;;;;5087416;28;19916;-78
2021/03/28 02:02:03;;;;;;;;;;;3.70;99.90;;;;;;5077644;28;19920;-78
2021/03/28 02:04:40;;;;;;;;;;;3.70;99.90;;;;;;5077644;28;19989;-78
2021/03/28 02:07:07;;;;;;;;;;;3.70;99.90;;;;;;5077200;28;19924;-78
2021/03/28 02:09:35;;;;;;;;;;;3.70;99.90;;;;;;5087357;28;19916;-78
2021/03/28 02:12:07;;;;;;;;;;;3.70;99.90;;;;;;5077362;28;20067;-78
2021/03/28 02:14:39;;;;;;;;;;;3.70;99.90;;;;;;5092712;27;19966;-78
2021/03/28 02:17:23;;;;;;;;;;;3.70;99.90;;;;;;5077709;28;19928;-78
2021/03/28 02:19:57;;;;;;;;;;;3.70;99.90;;;;;;5077592;28;19977;-78
2021/03/28 02:22:25;;;;;;;;;;;3.70;99.90;;;;;;5077705;28;20457;-78
2021/03/28 02:24:51;;;;;;;;;;;3.80;99.90;;;;;;5078722;28;19916;-78
2021/03/28 02:27:19;;;;;;;;;;;3.70;99.90;;;;;;5079180;28;19935;-78
2021/03/28 02:29:51;;;;;;;;;;;3.70;99.90;;;;;;5077482;28;19927;-78
2021/03/28 02:32:22;;;;;;;;;;;3.80;99.90;;;;;;5077084;28;19920;-78
2021/03/28 02:35:03;;;;;;;;;;;3.80;99.90;;;;;;5078626;28;19920;-78
2021/03/28 02:37:37;;;;;;;;;;;3.80;99.90;;;;;;5110064;27;20058;-78
2021/03/28 02:40:08;;;;;;;;;;;3.80;99.90;;;;;;5076043;28;19986;-78
2021/03/28 02:42:35;;;;;;;;;;;3.80;99.90;;;;;;5076726;28;19920;-78
2021/03/28 02:45:06;;;;;;;;;;;3.80;99.90;;;;;;5078227;28;20539;-78
2021/03/28 02:47:53;;;;;;;;;;;3.90;99.90;;;;;;5075605;28;19932;-78
2021/03/28 02:50:37;;;;;;;;;;;3.90;99.90;;;;;;5075600;28;20039;-78
2021/03/28 02:53:05;;;;;;;;;;;3.90;99.90;;;;;;5075975;28;20441;-78
2021/03/28 02:55:37;;;;;;;;;;;3.90;99.90;;;;;;5092190;27;19927;-78
2021/03/28 02:58:09;;;;;;;;;;;3.90;99.90;;;;;;5077380;28;20384;-78
2021/03/28 03:00:41;;;;;;;;;;;3.90;99.90;;;;;;5083876;28;19942;-78
2021/03/28 03:03:29;;;;;;;;;;;3.90;99.90;;;;;;5078246;28;19917;-78
2021/03/28 03:06:14;;;;;;;;;;;3.80;99.90;;;;;;5088308;28;19931;-78
2021/03/28 03:08:44;;;;;;;;;;;3.80;99.90;;;;;;5090203;28;20372;-78
2021/03/28 03:11:29;;;;;;;;;;;3.80;99.90;;;;;;5081954;28;20375;-78
2021/03/28 03:14:08;;;;;;;;;;;3.80;99.90;;;;;;5087957;28;19966;-78
2021/03/28 03:16:52;;;;;;;;;;;3.80;99.90;;;;;;5076533;28;20517;-78
2021/03/28 03:19:25;;;;;;;;;;;3.80;99.90;;;;;;5076972;28;19946;-78
2021/03/28 03:22:09;;;;;;;;;;;3.80;99.90;;;;;;5087563;28;20308;-78
2021/03/28 03:25:16;;;;;;;;;;;3.80;99.90;;;;;;5076228;28;19919;-78
2021/03/28 03:27:47;;;;;;;;;;;3.80;99.90;;;;;;5038534;28;19963;-78
2021/03/28 03:30:30;;;;;;;;;;;3.80;99.90;;;;;;5039817;28;20037;-78
2021/03/28 03:33:28;;;;;;;;;;;3.70;99.90;;;;;;5062053;28;19923;-78
2021/03/28 03:35:56;;;;;;;;;;;3.70;99.90;;;;;;5058456;28;20332;-78
2021/03/28 03:38:42;;;;;;;;;;;3.70;99.90;;;;;;5075328;28;19916;-78
2021/03/28 03:41:27;;;;;;;;;;;3.70;99.90;;;;;;5077113;28;19916;-78
2021/03/28 03:44:11;;;;;;;;;;;3.70;99.90;;;;;;5075018;28;20281;-78
2021/03/28 03:46:48;;;;;;;;;;;3.70;99.90;;;;;;5075977;28;20278;-78
2021/03/28 03:49:17;;;;;;;;;;;3.60;99.90;;;;;;5091896;28;20281;-78
2021/03/28 03:51:57;;;;;;;;;;;3.60;99.90;;;;;;5075217;28;20358;-78
2021/03/28 03:54:38;;;;;;;;;;;3.60;99.90;;;;;;5079125;28;19912;-78
2021/03/28 03:57:06;;;;;;;;;;;3.60;99.90;;;;;;5077422;28;20322;-78
2021/03/28 03:59:40;;;;;;;;;;;3.60;99.90;;;;;;5075715;28;19927;-79
2021/03/28 04:02:09;;;;;;;;;;;3.60;99.90;;;;;;5074688;28;20371;-79
2021/03/28 04:04:40;;;;;;;;;;;3.60;99.90;;;;;;5075771;28;19970;-78
2021/03/28 04:07:18;;;;;;;;;;;3.60;99.90;;;;;;5091130;27;19977;-78
2021/03/28 04:09:44;;;;;;;;;;;3.50;99.90;;;;;;5074632;28;19916;-78
2021/03/28 04:12:24;;;;;;;;;;;3.50;99.90;;;;;;5075837;28;19931;-78
2021/03/28 04:15:15;;;;;;;;;;;3.50;99.90;;;;;;5073538;28;19927;-79
2021/03/28 04:18:00;;;;;;;;;;;3.40;99.90;;;;;;5055473;28;20003;-79
2021/03/28 04:20:44;;;;;;;;;;;3.40;99.90;;;;;;5075142;28;19927;-78
2021/03/28 04:23:30;;;;;;;;;;;3.40;99.90;;;;;;5090926;28;19962;-79
2021/03/28 04:25:58;;;;;;;;;;;3.40;99.90;;;;;;5082569;28;20250;-79
2021/03/28 04:28:26;;;;;;;;;;;3.40;99.90;;;;;;5075729;28;19927;-78
2021/03/28 04:30:55;;;;;;;;;;;3.40;99.90;;;;;;5075512;28;20020;-78
2021/03/28 04:33:37;;;;;;;;;;;3.40;99.90;;;;;;5075544;28;19995;-78
2021/03/28 04:36:22;;;;;;;;;;;3.40;99.90;;;;;;5073054;28;19920;-78
2021/03/28 04:39:07;;;;;;;;;;;3.40;99.90;;;;;;5069459;28;20664;-78
2021/03/28 04:41:33;;;;;;;;;;;3.40;99.90;;;;;;5077648;28;19927;-78
2021/03/28 04:44:06;;;;;;;;;;;3.30;99.90;;;;;;5075700;28;19916;-78
2021/03/28 04:46:41;;;;;;;;;;;3.30;99.90;;;;;;5075060;28;19916;-78
2021/03/28 04:49:25;;;;;;;;;;;3.30;99.90;;;;;;5086507;28;20585;-78
2021/03/28 04:51:56;;;;;;;;;;;3.30;99.90;;;;;;5092119;28;19912;-78
2021/03/28 04:54:30;;;;;;;;;;;3.30;99.90;;;;;;5087095;28;19920;-78
2021/03/28 04:57:01;;;;;;;;;;;3.30;99.90;;;;;;5078093;28;19921;-78
2021/03/28 04:59:39;;;;;;;;;;;3.30;99.90;;;;;;5074794;28;20118;-78
2021/03/28 05:02:08;;;;;;;;;;;3.20;99.90;;;;;;5073955;28;19931;-78
2021/03/28 05:04:48;;;;;;;;;;;3.20;99.90;;;;;;5075511;28;19916;-78
2021/03/28 05:07:32;;;;;;;;;;;3.20;99.90;;;;;;5074145;28;19936;-78
2021/03/28 05:10:01;;;;;;;;;;;3.20;99.90;;;;;;5075698;28;20015;-78
2021/03/28 05:12:45;;;;;;;;;;;3.20;99.90;;;;;;5076772;28;20172;-78
2021/03/28 05:15:26;;;;;;;;;;;3.30;99.90;;;;;;5078954;28;19920;-78
2021/03/28 05:17:51;;;;;;;;;;;3.20;99.90;;;;;;5077931;28;19973;-78
2021/03/28 05:20:40;;;;;;;;;;;3.20;99.90;;;;;;5076842;28;19924;-78
2021/03/28 05:23:09;;;;;;;;;;;3.20;99.90;;;;;;5084069;28;19963;-78
2021/03/28 05:25:34;;;;;;;;;;;3.20;99.90;;;;;;5096615;28;19920;-79
2021/03/28 05:28:19;;;;;;;;;;;3.20;99.90;;;;;;5088151;28;20265;-79
2021/03/28 05:30:52;;;;;;;;;;;3.20;99.90;;;;;;5077940;28;19975;-78
2021/03/28 05:33:18;;;;;;;;;;;3.20;99.90;;;;;;5077623;28;20296;-78
2021/03/28 05:35:43;;;;;;;;;;;3.20;99.90;;;;;;5078228;28;19925;-78
2021/03/28 05:38:27;;;;;;;;;;;3.30;99.90;;;;;;5078012;28;19919;-78
2021/03/28 05:41:11;;;;;;;;;;;3.30;99.90;;;;;;5078845;28;19931;-78
2021/03/28 05:43:37;;;;;;;;;;;3.30;99.90;;;;;;5093997;27;19943;-78
2021/03/28 05:46:04;;;;;;;;;;;3.30;99.90;;;;;;5078062;28;19924;-78
2021/03/28 05:48:33;;;;;;;;;;;3.30;99.90;;;;;;5076764;28;20019;-78
2021/03/28 05:51:17;;;;;;;;;;;3.30;99.90;;;;;;5077465;28;20011;-78
2021/03/28 05:53:51;;;;;;;;;;;3.30;99.90;;;;;;5077773;28;19930;-79
2021/03/28 05:56:35;;;;;;;;;;;3.40;99.90;;;;;;5078205;28;20007;-78
2021/03/28 05:59:06;;;;;;;;;;;3.40;99.90;;;;;;5077703;28;19969;-78
2021/03/28 06:01:50;;;;;;;;;;;3.40;99.90;;;;;;5079338;28;19916;-79
2021/03/28 06:04:15;;;;;;;;;;;3.40;99.90;;;;;;5089222;28;19916;-79
2021/03/28 06:06:49;;;;;;;;;;;3.50;99.90;;;;;;5092651;27;19932;-78
2021/03/28 06:09:20;;;;;;;;;;;3.50;99.90;;;;;;5077793;28;19977;-79
2021/03/28 06:12:04;;;;;;;;;;;3.50;99.90;;;;;;5077065;28;19932;-79
2021/03/28 06:14:39;;;;;;;;;;;3.50;99.90;;;;;;5078287;28;19985;-79
2021/03/28 06:17:34;;;;;;;;;;;3.60;99.90;;;;;;5077926;27;19932;-79
2021/03/28 06:19:59;;;;;;;;;;;3.60;99.90;;;;;;5051646;28;19924;-79
2021/03/28 06:22:31;;;;;;;;;;;3.70;99.90;;;;;;5079708;28;19923;-79
2021/03/28 06:25:09;;;;;;;;;;;3.70;99.90;;;;;;5086630;28;20598;-79
2021/03/28 06:27:53;;;;;;;;;;;3.70;99.90;;;;;;5079091;28;19925;-78
2021/03/28 06:30:30;;;;;;;;;;;3.80;99.90;;;;;;5076677;28;20079;-79
2021/03/28 06:32:56;;;;;;;;;;;3.90;99.90;;;;;;5077165;28;19954;-79
2021/03/28 06:35:40;;;;;;;;;;;4.00;99.90;;;;;;5076050;28;19920;-79
2021/03/28 06:38:20;;;;;;;;;;;4.00;99.90;;;;;;5077623;28;19912;-79
2021/03/28 06:41:04;;;;;;;;;;;4.10;99.90;;;;;;5076936;28;19920;-79
2021/03/28 06:43:50;;;;;;;;;;;4.20;99.90;;;;;;5077328;28;19919;-79
2021/03/28 06:46:34;;;;;;;;;;;4.20;99.90;;;;;;5076428;28;19920;-79
2021/03/28 06:49:18;;;;;;;;;;;4.30;99.90;;;;;;5076220;28;19916;-79
2021/03/28 06:51:57;;;;;;;;;;;4.40;99.90;;;;;;5077267;28;20402;-78
2021/03/28 06:54:42;;;;;;;;;;;4.40;99.90;;;;;;5075563;28;19916;-79
2021/03/28 06:57:15;;;;;;;;;;;4.50;99.90;;;;;;5076241;28;19932;-79
2021/03/28 06:59:59;;;;;;;;;;;4.50;99.90;;;;;;5083332;28;19924;-79
2021/03/28 07:02:36;;;;;;;;;;;4.60;99.90;;;;;;5077391;28;19921;-79
2021/03/28 07:05:10;;;;;;;;;;;4.70;99.90;;;;;;5078770;28;20039;-79
2021/03/28 07:07:42;;;;;;;;;;;4.70;99.90;;;;;;5077032;28;20013;-79
2021/03/28 07:10:07;;;;;;;;;;;4.90;99.90;;;;;;5076956;28;19932;-79
2021/03/28 07:13:01;;;;;;;;;;;5.00;99.90;;;;;;5076027;28;19919;-79
2021/03/28 07:15:45;;;;;;;;;;;5.10;99.90;;;;;;5063440;27;19916;-79
2021/03/28 07:18:30;;;;;;;;;;;5.20;99.90;;;;;;5092722;27;20002;-79
2021/03/28 07:21:01;;;;;;;;;;;5.40;99.90;;;;;;5077656;28;19927;-79
2021/03/28 07:23:42;;;;;;;;;;;5.60;99.90;;;;;;5076846;28;20041;-79
2021/03/28 07:26:31;;;;;;;;;;;5.70;99.90;;;;;;5076162;28;19962;-79
2021/03/28 07:28:56;;;;;;;;;;;5.80;99.90;;;;;;5084274;28;19915;-79
2021/03/28 07:31:41;;;;;;;;;;;5.90;99.90;;;;;;5092689;28;19948;-79
2021/03/28 07:34:12;;;;;;;;;;;6.10;99.90;;;;;;5077153;28;19944;-79
2021/03/28 07:36:37;;;;;;;;;;;6.20;99.90;;;;;;5087634;28;20519;-79
2021/03/28 07:39:24;;;;;;;;;;;6.40;99.90;;;;;;5075677;28;19923;-79
2021/03/28 07:42:03;;;;;;;;;;;6.40;99.90;;;;;;5079988;28;19969;-79
2021/03/28 07:44:37;;;;;;;;;;;6.60;99.90;;;;;;5077945;28;19996;-79
2021/03/28 07:47:03;;;;;;;;;;;6.70;99.90;;;;;;5077731;28;19979;-80
2021/03/28 07:49:43;;;;;;;;;;;6.80;99.90;;;;;;5081321;28;19920;-79
2021/03/28 07:52:18;;;;;;;;;;;6.90;99.90;;;;;;5091615;28;19976;-79
2021/03/28 07:55:05;;;;;;;;;;;7.00;99.90;;;;;;5079604;28;19928;-79
2021/03/28 07:57:36;;;;;;;;;;;7.10;99.90;;;;;;5075945;28;19916;-79
2021/03/28 08:00:05;;;;;;;;;;;7.10;99.90;;;;;;5086178;28;20484;-79
2021/03/28 08:02:49;;;;;;;;;;;7.20;99.90;;;;;;5074094;28;19945;-79
2021/03/28 08:05:16;;;;;;;;;;;7.20;99.90;;;;;;5075918;28;19920;-79
2021/03/28 08:07:45;;;;;;;;;;;7.30;99.90;;;;;;5078427;28;19968;-79
2021/03/28 08:10:13;;;;;;;;;;;7.40;99.90;;;;;;5076195;28;19978;-79
2021/03/28 08:12:44;;;;;;;;;;;7.40;99.90;;;;;;5075452;28;19916;-79
2021/03/28 08:15:10;;;;;;;;;;;7.40;99.90;;;;;;5075135;28;20470;-80
2021/03/28 08:17:56;;;;;;;;;;;7.50;99.90;;;;;;5076080;28;19916;-79
2021/03/28 08:20:21;;;;;;;;;;;7.60;99.90;;;;;;5077129;28;19919;-80
2021/03/28 08:22:59;;;;;;;;;;;7.70;99.90;;;;;;5074779;28;19931;-79
2021/03/28 08:25:43;;;;;;;;;;;7.70;99.90;;;;;;5074231;28;20021;-79
2021/03/28 08:28:27;;;;;;;;;;;7.80;99.90;;;;;;5074835;28;19949;-79
2021/03/28 08:31:11;;;;;;;;;;;7.90;99.90;;;;;;5075504;28;19916;-79
2021/03/28 08:33:46;;;;;;;;;;;8.10;99.90;;;;;;5074803;28;19930;-79
2021/03/28 08:36:34;;;;;;;;;;;8.20;99.90;;;;;;5074957;28;20050;-79
2021/03/28 08:39:03;;;;;;;;;;;8.40;99.90;;;;;;5059910;28;19920;-78
2021/03/28 08:41:33;;;;;;;;;;;8.40;99.90;;;;;;5075259;28;20003;-79
2021/03/28 08:44:05;;;;;;;;;;;8.60;99.90;;;;;;5089727;28;20345;-78
2021/03/28 08:46:49;;;;;;;;;;;8.70;99.90;;;;;;5074527;28;19920;-78
2021/03/28 08:49:32;;;;;;;;;;;8.80;99.90;;;;;;5090929;28;19916;-78
2021/03/28 08:52:03;;;;;;;;;;;9.00;99.90;;;;;;5088494;28;20027;-78
2021/03/28 08:54:32;;;;;;;;;;;9.20;99.90;;;;;;5079167;28;19916;-78
2021/03/28 08:57:01;;;;;;;;;;;9.30;99.90;;;;;;5071264;27;19938;-80
2021/03/28 08:59:45;;;;;;;;;;;9.50;99.90;;;;;;5094336;28;20003;-79
2021/03/28 09:02:19;;;;;;;;;;;9.60;99.90;;;;;;5099569;27;19955;-77
2021/03/28 09:04:49;;;;;;;;;;;9.80;99.90;;;;;;5093295;28;19920;-79
2021/03/28 09:07:37;;;;;;;;;;;10.00;99.90;;;;;;5087468;28;19928;-76
2021/03/28 09:10:06;;;;;;;;;;;10.10;99.90;;;;;;5084879;28;19924;-78
2021/03/28 09:12:37;;;;;;;;;;;10.30;99.90;;;;;;5087324;28;19922;-79
2021/03/28 09:15:19;;;;;;;;;;;10.50;99.90;;;;;;5089723;28;19935;-79
2021/03/28 09:18:02;;;;;;;;;;;10.60;99.90;;;;;;5089041;28;19927;-79
2021/03/28 09:20:39;;;;;;;;;;;10.70;99.90;;;;;;5123930;27;19916;-76
2021/03/28 09:23:17;;;;;;;;;;;10.80;96.80;;;;;;5091838;28;20410;-78
2021/03/28 09:26:12;;;;;;;;;;;11.00;97.30;;;;;;5093624;28;20276;-81
2021/03/28 09:28:59;;;;;;;;;;;11.00;96.40;;;;;;5079791;28;21867;-77
2021/03/28 09:31:31;;;;;;;;;;;11.10;93.90;;;;;;5090616;28;20014;-78
2021/03/28 09:34:15;;;;;;;;;;;11.30;94.60;;;;;;5091889;28;19912;-78
2021/03/28 09:36:58;;;;;;;;;;;11.40;93.30;;;;;;5093381;28;19916;-78
2021/03/28 09:39:36;;;;;;;;;;;11.50;84.00;;;;;;5091913;28;21760;-78
2021/03/28 09:42:01;;;;;;;;;;;11.50;80.60;;;;;;5096237;28;19951;-78
2021/03/28 09:44:43;;;;;;;;;;;11.60;84.70;;;;;;5091000;28;19955;-77
2021/03/28 09:47:11;;;;;;;;;;;11.70;83.60;;;;;;5096972;28;19920;-78
2021/03/28 09:49:40;;;;;;;;;;;11.70;80.50;;;;;;5095273;28;19920;-77
2021/03/28 09:52:24;;;;;;;;;;;11.70;78.10;;;;;;5092525;28;19908;-78
2021/03/28 09:55:04;;;;;;;;;;;11.80;82.60;;;;;;5091374;28;19912;-77
2021/03/28 09:57:42;;;;;;;;;;;11.80;74.10;;;;;;5085414;28;19919;-77
2021/03/28 10:00:27;;;;;;;;;;;11.90;80.20;;;;;;5090903;28;19966;-78
2021/03/28 10:02:52;;;;;;;;;;;11.90;77.00;;;;;;5095036;28;20454;-78
2021/03/28 10:05:19;;;;;;;;;;;11.90;77.10;;;;;;5092704;28;19962;-78
2021/03/28 10:07:54;;;;;;;;;;;12.00;76.10;;;;;;5096881;28;20316;-78
2021/03/28 10:10:21;;;;;;;;;;;12.10;82.00;;;;;;5091386;28;19920;-77
2021/03/28 10:13:02;;;;;;;;;;;12.20;77.10;;;;;;5093708;28;20579;-78
2021/03/28 10:15:27;;;;;;;;;;;12.30;80.50;;;;;;5103771;27;19920;-76
2021/03/28 10:18:02;;;;;;;;;;;12.30;78.30;;;;;;5089811;28;20410;-78
2021/03/28 10:20:36;;;;;;;;;;;12.40;78.80;;;;;;5103116;27;19919;-78
2021/03/28 10:23:14;;;;;;;;;;;12.50;79.80;;;;;;5085983;28;20287;-76
2021/03/28 10:26:01;;;;;;;;;;;12.50;72.10;;;;;;5086935;28;19916;-75
2021/03/28 10:28:29;;;;;;;;;;;12.50;71.20;;;;;;5086899;28;19935;-78
2021/03/28 10:31:00;;;;;;;;;;;12.50;74.20;;;;;;5090150;28;19917;-77
2021/03/28 10:33:29;;;;;;;;;;;12.50;71.30;;;;;;5093673;28;20000;-78
2021/03/28 10:36:00;;;;;;;;;;;12.50;70.70;;;;;;5066708;28;20360;-75
2021/03/28 10:38:44;;;;;;;;;;;12.50;68.80;;;;;;5089782;28;19931;-75
2021/03/28 10:41:13;;;;;;;;;;;12.50;71.50;;;;;;5092560;28;19970;-77
2021/03/28 10:43:44;;;;;;;;;;;12.50;68.10;;;;;;5080187;28;19931;-78
2021/03/28 10:46:28;;;;;;;;;;;12.50;69.30;;;;;;5077600;28;19927;-78
2021/03/28 10:49:12;;;;;;;;;;;12.40;68.20;;;;;;5078929;28;20270;-78
2021/03/28 10:51:56;;;;;;;;;;;12.30;71.30;;;;;;5093841;27;19954;-76
2021/03/28 10:54:22;;;;;;;;;;;12.30;67.20;;;;;;5083662;28;20050;-76
2021/03/28 10:57:26;;;;;;;;;;;12.30;71.10;;;;;;5090915;28;20003;-77
2021/03/28 10:59:57;;;;;;;;;;;12.20;69.10;;;;;;5049192;28;19923;-74
2021/03/28 11:02:43;;;;;;;;;;;12.20;66.80;;;;;;5050448;28;19932;-79
2021/03/28 11:05:23;;;;;;;;;;;12.10;69.50;;;;;;5033512;28;19940;-79
2021/03/28 11:08:12;;;;;;;;;;;12.00;68.00;;;;;;5048614;28;19999;-77
2021/03/28 11:10:40;;;;;;;;;;;12.00;68.90;;;;;;5032385;28;21890;-76
2021/03/28 11:13:14;;;;;;;;;;;12.00;68.10;;;;;;5070126;28;19929;-78
2021/03/28 11:15:47;;;;;;;;;;;12.00;68.70;;;;;;5052306;28;20687;-78
2021/03/28 11:18:19;;;;;;;;;;;12.00;71.50;;;;;;5031686;28;20472;-75
2021/03/28 11:20:52;;;;;;;;;;;12.10;68.50;;;;;;5050606;28;19932;-76
2021/03/28 11:23:26;;;;;;;;;;;12.20;70.00;;;;;;5070272;28;19963;-76
2021/03/28 11:26:03;;;;;;;;;;;12.20;68.10;;;;;;5052841;28;19921;-75
2021/03/28 11:28:34;;;;;;;;;;;12.10;67.80;;;;;;5053739;28;19934;-79
2021/03/28 11:31:28;;;;;;;;;;;12.20;66.90;;;;;;5076746;28;19952;-78
2021/03/28 11:33:59;;;;;;;;;;;12.20;68.40;;;;;;5083582;28;19920;-78
2021/03/28 11:36:26;;;;;;;;;;;12.20;66.00;;;;;;5092015;28;19964;-78
2021/03/28 11:39:14;;;;;;;;;;;12.20;69.60;;;;;;5086686;28;19938;-78
2021/03/28 11:41:42;;;;;;;;;;;12.20;69.90;;;;;;5103302;27;19916;-77
2021/03/28 11:44:15;;;;;;;;;;;12.30;67.30;;;;;;5089815;28;19934;-77
2021/03/28 11:46:50;;;;;;;;;;;12.30;69.40;;;;;;5119879;27;19996;-75
2021/03/28 11:49:16;;;;;;;;;;;12.30;66.10;;;;;;5089287;28;20279;-76
2021/03/28 11:51:43;;;;;;;;;;;12.30;67.90;;;;;;5071272;28;20341;-78
2021/03/28 11:54:08;;;;;;;;;;;12.40;71.30;;;;;;5094773;27;19954;-76
2021/03/28 11:56:40;;;;;;;;;;;12.50;68.70;;;;;;5090631;28;19962;-77
2021/03/28 11:59:14;;;;;;;;;;;12.50;71.10;;;;;;5087011;28;20357;-78
2021/03/28 12:01:55;;;;;;;;;;;12.70;70.00;;;;;;5089096;28;20008;-78
2021/03/28 12:04:30;;;;;;;;;;;12.70;67.70;;;;;;5086371;27;19912;-78
2021/03/28 12:06:58;;;;;;;;;;;13.00;68.30;;;;;;5091508;28;19939;-78
2021/03/28 12:09:25;;;;;;;;;;;13.10;69.30;;;;;;5089455;28;19927;-77
2021/03/28 12:11:53;;;;;;;;;;;13.20;66.10;;;;;;5084820;28;19912;-77
2021/03/28 12:14:23;;;;;;;;;;;13.30;66.00;;;;;;5088429;28;19986;-78
2021/03/28 12:17:07;;;;;;;;;;;13.60;66.80;;;;;;5085191;28;19923;-78
2021/03/28 12:19:35;;;;;;;;;;;13.80;64.90;;;;;;5090295;28;19923;-77
2021/03/28 12:22:01;;;;;;;;;;;13.80;61.40;;;;;;5087783;28;19912;-77
2021/03/28 12:24:27;;;;;;;;;;;13.90;63.70;;;;;;4720750;28;9999985;-77
2021/03/28 12:26:53;;;;;;;;;;;14.00;62.20;;;;;;5092721;28;20490;-77
2021/03/28 12:29:22;;;;;;;;;;;14.10;63.10;;;;;;5103310;27;20020;-77
2021/03/28 12:31:50;;;;;;;;;;;14.20;63.00;;;;;;5089655;28;19923;-76
2021/03/28 12:34:19;;;;;;;;;;;14.10;60.30;;;;;;5092698;28;19916;-78
2021/03/28 12:37:03;;;;;;;;;;;14.20;61.80;;;;;;5082964;28;19958;-77
2021/03/28 12:39:38;;;;;;;;;;;14.40;65.90;;;;;;5086876;28;19951;-77
2021/03/28 12:42:04;;;;;;;;;;;14.60;61.00;;;;;;5085699;28;20012;-77
2021/03/28 12:44:30;;;;;;;;;;;14.80;60.50;;;;;;5082918;28;20639;-78
2021/03/28 12:47:18;;;;;;;;;;;14.90;57.50;;;;;;5082304;28;19926;-79
2021/03/28 12:49:46;;;;;;;;;;;15.10;61.50;;;;;;5086136;28;19920;-77
2021/03/28 12:52:15;;;;;;;;;;;15.30;58.80;;;;;;4738419;27;10000571;-80
2021/03/28 12:54:49;;;;;;;;;;;15.50;59.30;;;;;;5084546;28;20957;-77
2021/03/28 12:57:24;;;;;;;;;;;15.60;57.50;;;;;;5085755;28;19919;-78
2021/03/28 12:59:50;;;;;;;;;;;15.60;56.50;;;;;;5084823;28;20505;-78
2021/03/28 13:02:25;;;;;;;;;;;15.40;55.90;;;;;;5084651;28;19916;-77
2021/03/28 13:04:53;;;;;;;;;;;15.50;60.40;;;;;;5088176;28;19927;-77
2021/03/28 13:07:31;;;;;;;;;;;15.60;59.80;;;;;;5085835;28;19919;-77
2021/03/28 13:09:57;;;;;;;;;;;15.60;59.60;;;;;;5081467;28;19931;-77
2021/03/28 13:12:23;;;;;;;;;;;15.80;60.60;;;;;;5087486;28;19916;-77
2021/03/28 13:14:49;;;;;;;;;;;15.90;56.90;;;;;;5085670;28;19962;-78
2021/03/28 13:17:15;;;;;;;;;;;16.00;60.20;;;;;;5091412;28;19920;-77
2021/03/28 13:19:41;;;;;;;;;;;16.00;59.10;;;;;;5089636;28;19991;-77
2021/03/28 13:22:26;;;;;;;;;;;16.00;54.20;;;;;;5072781;28;20304;-78
2021/03/28 13:24:54;;;;;;;;;;;15.90;56.60;;;;;;5090457;28;20015;-78
2021/03/28 13:27:19;;;;;;;;;;;16.20;60.40;;;;;;5088775;28;19912;-77
2021/03/28 13:29:52;;;;;;;;;;;16.30;58.20;;;;;;5072209;28;19912;-77
2021/03/28 13:32:24;;;;;;;;;;;16.30;58.70;;;;;;5081869;28;21508;-77
2021/03/28 13:34:57;;;;;;;;;;;16.30;59.00;;;;;;5090841;28;19916;-76
2021/03/28 13:37:23;;;;;;;;;;;16.40;54.10;;;;;;5093616;28;19916;-77
2021/03/28 13:40:07;;;;;;;;;;;16.50;57.90;;;;;;5094782;28;19913;-77
2021/03/28 13:42:45;;;;;;;;;;;16.60;57.00;;;;;;5090501;28;20352;-77
2021/03/28 13:45:10;;;;;;;;;;;16.50;55.40;;;;;;5096385;28;19938;-76
2021/03/28 13:47:42;;;;;;;;;;;16.30;52.90;;;;;;5094021;28;19916;-77
2021/03/28 13:50:17;;;;;;;;;;;16.20;55.60;;;;;;5092967;28;19923;-77
2021/03/28 13:52:43;;;;;;;;;;;16.10;56.50;;;;;;5108460;27;20019;-77
2021/03/28 13:55:12;;;;;;;;;;;15.80;53.50;;;;;;5127032;27;20540;-80
2021/03/28 13:57:41;;;;;;;;;;;15.60;54.90;;;;;;5089918;28;19912;-76
2021/03/28 14:00:19;;;;;;;;;;;15.50;55.90;;;;;;5091597;28;19939;-77
2021/03/28 14:02:46;;;;;;;;;;;15.30;56.90;;;;;;5092459;28;19960;-77
2021/03/28 14:05:13;;;;;;;;;;;15.30;56.60;;;;;;5091306;28;19966;-78
2021/03/28 14:07:42;;;;;;;;;;;15.30;56.90;;;;;;5110545;27;20382;-77
2021/03/28 14:10:30;;;;;;;;;;;15.20;55.00;;;;;;5093985;28;19912;-78
2021/03/28 14:12:56;;;;;;;;;;;15.20;57.00;;;;;;5083300;28;19967;-78
2021/03/28 14:15:31;;;;;;;;;;;15.10;58.40;;;;;;5097519;28;20011;-77
2021/03/28 14:18:03;;;;;;;;;;;15.10;57.40;;;;;;5094730;28;19978;-77
2021/03/28 14:20:35;;;;;;;;;;;15.10;56.30;;;;;;5066363;28;19916;-77
2021/03/28 14:23:15;;;;;;;;;;;15.10;56.90;;;;;;5091498;28;19927;-78
2021/03/28 14:25:43;;;;;;;;;;;15.00;56.00;;;;;;5063266;28;19920;-77
2021/03/28 14:28:29;;;;;;;;;;;15.10;58.80;;;;;;5093380;28;19916;-77
2021/03/28 14:31:02;;;;;;;;;;;15.10;57.50;;;;;;5093534;28;19920;-78
2021/03/28 14:33:46;;;;;;;;;;;15.00;56.30;;;;;;5094502;28;19981;-78
2021/03/28 14:36:11;;;;;;;;;;;15.00;55.60;;;;;;5093096;28;19923;-78
2021/03/28 14:39:12;;;;;;;;;;;15.00;56.10;;;;;;5089437;28;19921;-77
2021/03/28 14:41:48;;;;;;;;;;;15.00;57.60;;;;;;5031310;28;20445;-77
2021/03/28 14:44:16;;;;;;;;;;;15.00;59.10;;;;;;5079837;28;20002;-78
2021/03/28 14:47:04;;;;;;;;;;;15.00;57.20;;;;;;5087809;28;19920;-78
2021/03/28 14:49:39;;;;;;;;;;;15.10;56.20;;;;;;5060285;28;19923;-78
2021/03/28 14:52:14;;;;;;;;;;;15.00;58.50;;;;;;5094898;28;19924;-78
2021/03/28 14:54:44;;;;;;;;;;;15.00;56.00;;;;;;5095712;28;19923;-78
2021/03/28 14:57:17;;;;;;;;;;;15.00;56.10;;;;;;5091789;28;19955;-78
2021/03/28 15:00:00;;;;;;;;;;;15.00;58.30;;;;;;5098017;28;19962;-77
2021/03/28 15:02:44;;;;;;;;;;;14.90;55.80;;;;;;5094372;28;19931;-76
2021/03/28 15:05:13;;;;;;;;;;;14.90;57.40;;;;;;4386304;27;10000771;-78
2021/03/28 15:07:43;;;;;;;;;;;15.00;57.30;;;;;;5086792;28;19982;-77
2021/03/28 15:10:27;;;;;;;;;;;15.00;58.60;;;;;;5087296;28;20368;-78